Satsuma, AL

2:06 PM CDT on May 29, 2015 (GMT -0500)
Mobile Regional | | Change Station
CLOSE
Current Station
Airport
Location: Mobile,
Elevation: 220 ft
Nearby Weather Stations

Elev 220 ft 30.69 °N, 88.25 °W | Updated 10 minutes ago

Mostly Cloudy
Mostly Cloudy
85 °F
Feels Like 88 °F
N
14
Wind Variable Wind from SSE
Gusts 23 mph

Today
High -- | Low -- °F
--% Chance of Precip.
Yesterday
High -- | Low -- °F
Precip. -- in
5:50 AM 7:48 PM
Waxing Gibbous, 85% visible
Pressure 30.10 in
Visibility 10.0 miles
Clouds Scattered Clouds 4000 ft
Scattered Clouds 25000 ft
Heat Index 88 °F
Dew Point 68 °F
Humidity 57%
Rainfall 0.00 in
Snow Depth Not available.
UV 10 out of 12
Pollen 4.50 out of 12
Air Quality Not available.
Flu Activity Sporadic
METAR KMOB 291856Z 16012G20KT 10SM SCT040 SCT250 29/20 A3011 RMK AO2 SLP192 CB DSNT NE TCU DSNT N-NE AND S-NW T02940200

More Conditions Fewer Conditions

Pressure 30.10 in
Visibility 10.0 miles
Clouds Scattered Clouds 4000 ft
Scattered Clouds 25000 ft
Heat Index 88 °F
Dew Point 68 °F
Humidity 57%
Rainfall 0.00 in
Snow Depth Not available.
UV 10 out of 12
Pollen 4.50 out of 12
Air Quality Not available.
Flu Activity Sporadic
METAR KMOB 291856Z 16012G20KT 10SM SCT040 SCT250 29/20 A3011 RMK AO2 SLP192 CB DSNT NE TCU DSNT N-NE AND S-NW T02940200

More Conditions Fewer Conditions

10-Day Weather Forecast

Almanac

Astronomy

May. 29, 2015 Rise Set
Actual Time
Civil Twilight
Nautical Twilight
Astronomical Twilight
Moon
Length of Visible Light
Length of Day
Tomorrow will be .
, % of the Moon is Illuminated

Today's Extremes

State Highs State Lows

Community

WunderPhotos

Upload Photos

1,825,325 photos uploaded!

WunderBlogs® & News

Nearby

Air Quality

  Air Quality AQ Index Pollutant
Not available.

Snow Depth

Station Depth Elevation

Earthquake Activity

City Distance Mag. Time & Date
Minimum magnitude displayed is 2.5.

Coastal Water Temperatures

Place Temperature

Stations

Nearby Weather Stations

Station Location Temp. Windchill Dew Point Humidity Wind Precip. Elev Updated Type